Weather at Palma Sola Airport

Public forecast

Using degrees Celsius for public forecast. Weather courtesy of forecast.io.

Closest aviation weather report (METAR) to Palma Sola Airport

Report is more than 6 hours old.

Closest report is General Bartolome Salom International Airport, 6.0 nm (11.2 km) E. Retrieved 2019/12/24 13:00 UTC (2 years ago):

SVPC 241300Z 00000KT 9999 SCT020 XX/XX Q1011

Closest aviation forecast (TAF) to Palma Sola Airport

Forecast is more than 12 hours old.

Closest forecast is Arturo Michelena International Airport, 25.1 nm (46.5 km) SE. Retrieved 2021/10/19 12:00 UTC (4 days ago):

TAF SVVA 191100Z 1912/2012 07002KT 9999 FEW016 BKN250 TX33/1919Z TN23/2010Z TEMPO 1917/1923 11004KT SCT016 SCT060 TEMPO 2001/2006 05003KT BKN016